sensor_id;sensor_type;location;lat;lon;timestamp;P1;durP1;ratioP1;P2;durP2;ratioP2
60318;SDS011;46163;52.306;5.634;2023-09-08T00:00:57;4.40;;;3.17;;
60318;SDS011;46163;52.306;5.634;2023-09-08T00:03:22;6.22;;;3.45;;
60318;SDS011;46163;52.306;5.634;2023-09-08T00:05:48;4.65;;;3.80;;
60318;SDS011;46163;52.306;5.634;2023-09-08T00:08:14;4.72;;;4.00;;
60318;SDS011;46163;52.306;5.634;2023-09-08T00:10:40;3.97;;;3.28;;
60318;SDS011;46163;52.306;5.634;2023-09-08T00:13:05;3.90;;;3.50;;
60318;SDS011;46163;52.306;5.634;2023-09-08T00:15:33;5.80;;;4.03;;
60318;SDS011;46163;52.306;5.634;2023-09-08T00:17:59;4.55;;;3.90;;
60318;SDS011;46163;52.306;5.634;2023-09-08T00:20:25;5.35;;;3.65;;
60318;SDS011;46163;52.306;5.634;2023-09-08T00:22:50;4.32;;;3.65;;
60318;SDS011;46163;52.306;5.634;2023-09-08T00:25:16;5.55;;;4.10;;
60318;SDS011;46163;52.306;5.634;2023-09-08T00:27:41;4.38;;;3.47;;
60318;SDS011;46163;52.306;5.634;2023-09-08T00:30:07;6.38;;;3.60;;
60318;SDS011;46163;52.306;5.634;2023-09-08T00:32:33;3.95;;;3.55;;
60318;SDS011;46163;52.306;5.634;2023-09-08T00:34:58;3.92;;;3.53;;
60318;SDS011;46163;52.306;5.634;2023-09-08T00:37:24;5.07;;;3.83;;
60318;SDS011;46163;52.306;5.634;2023-09-08T00:39:49;4.82;;;3.58;;
60318;SDS011;46163;52.306;5.634;2023-09-08T00:42:14;5.10;;;3.60;;
60318;SDS011;46163;52.306;5.634;2023-09-08T00:44:40;5.00;;;3.35;;
60318;SDS011;46163;52.306;5.634;2023-09-08T00:47:05;4.38;;;3.45;;
60318;SDS011;46163;52.306;5.634;2023-09-08T00:49:31;4.05;;;3.53;;
60318;SDS011;46163;52.306;5.634;2023-09-08T00:51:57;3.88;;;3.40;;
60318;SDS011;46163;52.306;5.634;2023-09-08T00:54:22;4.32;;;3.50;;
60318;SDS011;46163;52.306;5.634;2023-09-08T00:56:48;5.40;;;3.70;;
60318;SDS011;46163;52.306;5.634;2023-09-08T00:59:17;3.97;;;3.17;;
60318;SDS011;46163;52.306;5.634;2023-09-08T01:01:43;4.78;;;3.55;;
60318;SDS011;46163;52.306;5.634;2023-09-08T01:04:08;5.35;;;3.45;;
60318;SDS011;46163;52.306;5.634;2023-09-08T01:06:34;4.70;;;3.38;;
60318;SDS011;46163;52.306;5.634;2023-09-08T01:09:00;3.38;;;3.08;;
60318;SDS011;46163;52.306;5.634;2023-09-08T01:11:25;5.13;;;3.40;;
60318;SDS011;46163;52.306;5.634;2023-09-08T01:13:51;5.32;;;3.55;;
60318;SDS011;46163;52.306;5.634;2023-09-08T01:16:16;3.10;;;2.80;;
60318;SDS011;46163;52.306;5.634;2023-09-08T01:18:42;4.47;;;3.50;;
60318;SDS011;46163;52.306;5.634;2023-09-08T01:26:48;3.95;;;2.90;;
60318;SDS011;46163;52.306;5.634;2023-09-08T01:29:13;4.20;;;3.63;;
60318;SDS011;46163;52.306;5.634;2023-09-08T01:34:07;3.40;;;3.10;;
60318;SDS011;46163;52.306;5.634;2023-09-08T01:36:34;4.60;;;3.60;;
60318;SDS011;46163;52.306;5.634;2023-09-08T01:39:02;4.20;;;3.58;;
60318;SDS011;46163;52.306;5.634;2023-09-08T01:41:28;4.05;;;3.65;;
60318;SDS011;46163;52.306;5.634;2023-09-08T01:43:55;7.67;;;3.57;;
60318;SDS011;46163;52.306;5.634;2023-09-08T01:46:20;3.30;;;3.00;;
60318;SDS011;46163;52.306;5.634;2023-09-08T01:48:46;3.95;;;3.47;;
60318;SDS011;46163;52.306;5.634;2023-09-08T01:51:11;4.10;;;3.50;;
60318;SDS011;46163;52.306;5.634;2023-09-08T01:53:36;8.57;;;3.50;;
60318;SDS011;46163;52.306;5.634;2023-09-08T01:56:02;3.85;;;3.47;;
60318;SDS011;46163;52.306;5.634;2023-09-08T01:58:28;4.15;;;3.60;;
60318;SDS011;46163;52.306;5.634;2023-09-08T02:00:58;5.43;;;3.80;;
60318;SDS011;46163;52.306;5.634;2023-09-08T02:03:30;4.57;;;3.50;;
60318;SDS011;46163;52.306;5.634;2023-09-08T02:05:56;4.30;;;3.55;;
60318;SDS011;46163;52.306;5.634;2023-09-08T02:08:22;4.55;;;3.67;;
60318;SDS011;46163;52.306;5.634;2023-09-08T02:10:47;4.15;;;3.30;;
60318;SDS011;46163;52.306;5.634;2023-09-08T02:13:13;4.20;;;3.42;;
60318;SDS011;46163;52.306;5.634;2023-09-08T02:15:38;4.75;;;3.47;;
60318;SDS011;46163;52.306;5.634;2023-09-08T02:18:03;4.40;;;3.83;;
60318;SDS011;46163;52.306;5.634;2023-09-08T02:20:29;4.20;;;3.33;;
60318;SDS011;46163;52.306;5.634;2023-09-08T02:22:55;3.58;;;3.28;;
60318;SDS011;46163;52.306;5.634;2023-09-08T02:25:22;3.75;;;3.35;;
60318;SDS011;46163;52.306;5.634;2023-09-08T02:27:49;4.05;;;3.63;;
60318;SDS011;46163;52.306;5.634;2023-09-08T02:30:14;5.40;;;3.25;;
60318;SDS011;46163;52.306;5.634;2023-09-08T02:32:40;5.35;;;3.80;;
60318;SDS011;46163;52.306;5.634;2023-09-08T02:35:08;3.42;;;3.13;;
60318;SDS011;46163;52.306;5.634;2023-09-08T02:37:33;4.32;;;3.28;;
60318;SDS011;46163;52.306;5.634;2023-09-08T02:39:59;3.45;;;2.97;;
60318;SDS011;46163;52.306;5.634;2023-09-08T02:42:28;4.07;;;3.40;;
60318;SDS011;46163;52.306;5.634;2023-09-08T02:44:54;3.80;;;3.40;;
60318;SDS011;46163;52.306;5.634;2023-09-08T02:47:19;3.55;;;3.25;;
60318;SDS011;46163;52.306;5.634;2023-09-08T02:49:45;3.90;;;3.45;;
60318;SDS011;46163;52.306;5.634;2023-09-08T02:52:10;3.50;;;3.20;;
60318;SDS011;46163;52.306;5.634;2023-09-08T02:54:36;4.10;;;3.70;;
60318;SDS011;46163;52.306;5.634;2023-09-08T02:57:01;4.57;;;3.90;;
60318;SDS011;46163;52.306;5.634;2023-09-08T02:59:27;4.68;;;3.67;;
60318;SDS011;46163;52.306;5.634;2023-09-08T03:01:52;7.30;;;3.92;;
60318;SDS011;46163;52.306;5.634;2023-09-08T03:04:18;4.40;;;3.40;;
60318;SDS011;46163;52.306;5.634;2023-09-08T03:06:43;3.65;;;3.30;;
60318;SDS011;46163;52.306;5.634;2023-09-08T03:09:08;7.88;;;3.38;;
60318;SDS011;46163;52.306;5.634;2023-09-08T03:11:34;5.75;;;3.80;;
60318;SDS011;46163;52.306;5.634;2023-09-08T03:13:59;7.50;;;3.97;;
60318;SDS011;46163;52.306;5.634;2023-09-08T03:16:25;3.90;;;3.50;;
60318;SDS011;46163;52.306;5.634;2023-09-08T03:18:50;4.43;;;4.03;;
60318;SDS011;46163;52.306;5.634;2023-09-08T03:21:16;4.03;;;3.55;;
60318;SDS011;46163;52.306;5.634;2023-09-08T03:23:42;3.75;;;3.25;;
60318;SDS011;46163;52.306;5.634;2023-09-08T03:26:08;3.95;;;3.55;;
60318;SDS011;46163;52.306;5.634;2023-09-08T03:28:35;8.18;;;3.75;;
60318;SDS011;46163;52.306;5.634;2023-09-08T03:31:01;4.05;;;3.65;;
60318;SDS011;46163;52.306;5.634;2023-09-08T03:33:27;4.38;;;3.97;;
60318;SDS011;46163;52.306;5.634;2023-09-08T03:35:55;4.93;;;3.92;;
60318;SDS011;46163;52.306;5.634;2023-09-08T03:38:21;6.70;;;4.03;;
60318;SDS011;46163;52.306;5.634;2023-09-08T03:40:47;5.30;;;3.92;;
60318;SDS011;46163;52.306;5.634;2023-09-08T03:43:13;7.65;;;4.10;;
60318;SDS011;46163;52.306;5.634;2023-09-08T03:45:39;4.55;;;4.15;;
60318;SDS011;46163;52.306;5.634;2023-09-08T03:48:04;4.30;;;3.90;;
60318;SDS011;46163;52.306;5.634;2023-09-08T03:50:30;4.75;;;3.72;;
60318;SDS011;46163;52.306;5.634;2023-09-08T03:52:56;4.68;;;3.63;;
60318;SDS011;46163;52.306;5.634;2023-09-08T03:55:21;4.03;;;3.63;;
60318;SDS011;46163;52.306;5.634;2023-09-08T03:57:47;4.82;;;4.32;;
60318;SDS011;46163;52.306;5.634;2023-09-08T04:00:13;4.50;;;3.92;;
60318;SDS011;46163;52.306;5.634;2023-09-08T04:02:44;4.05;;;3.65;;
60318;SDS011;46163;52.306;5.634;2023-09-08T04:05:09;4.75;;;3.78;;
60318;SDS011;46163;52.306;5.634;2023-09-08T04:07:35;4.50;;;4.10;;
60318;SDS011;46163;52.306;5.634;2023-09-08T04:10:01;4.93;;;4.18;;
60318;SDS011;46163;52.306;5.634;2023-09-08T04:12:28;4.10;;;3.65;;
60318;SDS011;46163;52.306;5.634;2023-09-08T04:14:53;4.57;;;3.83;;
60318;SDS011;46163;52.306;5.634;2023-09-08T04:17:19;4.30;;;3.80;;
60318;SDS011;46163;52.306;5.634;2023-09-08T04:19:44;5.07;;;4.20;;
60318;SDS011;46163;52.306;5.634;2023-09-08T04:22:10;6.47;;;3.72;;
60318;SDS011;46163;52.306;5.634;2023-09-08T04:24:36;8.68;;;3.83;;
60318;SDS011;46163;52.306;5.634;2023-09-08T04:27:02;4.80;;;3.80;;
60318;SDS011;46163;52.306;5.634;2023-09-08T04:31:55;5.43;;;4.10;;
60318;SDS011;46163;52.306;5.634;2023-09-08T04:34:20;7.43;;;4.00;;
60318;SDS011;46163;52.306;5.634;2023-09-08T04:36:46;7.70;;;4.15;;
60318;SDS011;46163;52.306;5.634;2023-09-08T04:39:12;4.47;;;4.07;;
60318;SDS011;46163;52.306;5.634;2023-09-08T04:41:37;4.70;;;3.70;;
60318;SDS011;46163;52.306;5.634;2023-09-08T04:44:03;5.72;;;4.30;;
60318;SDS011;46163;52.306;5.634;2023-09-08T04:46:29;4.72;;;4.20;;
60318;SDS011;46163;52.306;5.634;2023-09-08T04:48:55;6.32;;;4.10;;
60318;SDS011;46163;52.306;5.634;2023-09-08T04:51:20;4.38;;;3.70;;
60318;SDS011;46163;52.306;5.634;2023-09-08T04:53:46;4.10;;;3.70;;
60318;SDS011;46163;52.306;5.634;2023-09-08T04:56:12;6.18;;;4.10;;
60318;SDS011;46163;52.306;5.634;2023-09-08T04:58:38;6.82;;;4.40;;
60318;SDS011;46163;52.306;5.634;2023-09-08T05:01:04;7.20;;;4.72;;
60318;SDS011;46163;52.306;5.634;2023-09-08T05:03:30;5.35;;;4.18;;
60318;SDS011;46163;52.306;5.634;2023-09-08T05:05:56;4.38;;;3.97;;
60318;SDS011;46163;52.306;5.634;2023-09-08T05:08:21;5.60;;;4.00;;
60318;SDS011;46163;52.306;5.634;2023-09-08T05:10:47;4.53;;;4.07;;
60318;SDS011;46163;52.306;5.634;2023-09-08T05:13:13;6.90;;;4.60;;
60318;SDS011;46163;52.306;5.634;2023-09-08T05:15:38;13.35;;;4.55;;
60318;SDS011;46163;52.306;5.634;2023-09-08T05:18:04;6.07;;;4.65;;
60318;SDS011;46163;52.306;5.634;2023-09-08T05:20:30;4.80;;;4.30;;
60318;SDS011;46163;52.306;5.634;2023-09-08T05:22:55;4.60;;;4.20;;
60318;SDS011;46163;52.306;5.634;2023-09-08T05:25:21;5.20;;;4.18;;
60318;SDS011;46163;52.306;5.634;2023-09-08T05:27:46;5.32;;;4.07;;
60318;SDS011;46163;52.306;5.634;2023-09-08T05:30:12;6.07;;;4.80;;
60318;SDS011;46163;52.306;5.634;2023-09-08T05:32:38;7.07;;;4.00;;
60318;SDS011;46163;52.306;5.634;2023-09-08T05:35:06;4.75;;;4.30;;
60318;SDS011;46163;52.306;5.634;2023-09-08T05:37:31;5.18;;;4.57;;
60318;SDS011;46163;52.306;5.634;2023-09-08T05:39:57;4.57;;;4.18;;
60318;SDS011;46163;52.306;5.634;2023-09-08T05:42:22;5.38;;;4.25;;
60318;SDS011;46163;52.306;5.634;2023-09-08T05:44:47;6.07;;;4.38;;
60318;SDS011;46163;52.306;5.634;2023-09-08T05:47:13;5.45;;;4.70;;
60318;SDS011;46163;52.306;5.634;2023-09-08T05:49:39;5.15;;;4.20;;
60318;SDS011;46163;52.306;5.634;2023-09-08T05:52:04;7.30;;;4.25;;
60318;SDS011;46163;52.306;5.634;2023-09-08T05:54:30;4.30;;;3.90;;
60318;SDS011;46163;52.306;5.634;2023-09-08T05:56:55;4.57;;;4.18;;
60318;SDS011;46163;52.306;5.634;2023-09-08T05:59:21;4.90;;;4.30;;
60318;SDS011;46163;52.306;5.634;2023-09-08T06:01:47;5.32;;;4.53;;
60318;SDS011;46163;52.306;5.634;2023-09-08T06:04:13;5.90;;;4.22;;
60318;SDS011;46163;52.306;5.634;2023-09-08T06:06:38;5.47;;;4.13;;
60318;SDS011;46163;52.306;5.634;2023-09-08T06:09:06;5.10;;;4.50;;
60318;SDS011;46163;52.306;5.634;2023-09-08T06:11:33;6.35;;;4.72;;
60318;SDS011;46163;52.306;5.634;2023-09-08T06:13:59;9.73;;;4.43;;
60318;SDS011;46163;52.306;5.634;2023-09-08T06:16:25;6.63;;;4.50;;
60318;SDS011;46163;52.306;5.634;2023-09-08T06:18:51;6.05;;;4.40;;
60318;SDS011;46163;52.306;5.634;2023-09-08T06:21:20;6.70;;;4.57;;
60318;SDS011;46163;52.306;5.634;2023-09-08T06:23:49;5.28;;;3.97;;
60318;SDS011;46163;52.306;5.634;2023-09-08T06:26:14;5.68;;;4.65;;
60318;SDS011;46163;52.306;5.634;2023-09-08T06:28:40;5.35;;;4.10;;
60318;SDS011;46163;52.306;5.634;2023-09-08T06:31:08;5.28;;;3.70;;
60318;SDS011;46163;52.306;5.634;2023-09-08T06:33:33;4.03;;;3.63;;
60318;SDS011;46163;52.306;5.634;2023-09-08T06:35:59;4.75;;;4.07;;
60318;SDS011;46163;52.306;5.634;2023-09-08T06:38:24;6.38;;;3.80;;
60318;SDS011;46163;52.306;5.634;2023-09-08T06:40:52;3.92;;;3.63;;
60318;SDS011;46163;52.306;5.634;2023-09-08T06:43:19;4.15;;;3.72;;
60318;SDS011;46163;52.306;5.634;2023-09-08T06:45:48;3.70;;;3.40;;
60318;SDS011;46163;52.306;5.634;2023-09-08T06:48:14;4.00;;;3.60;;
60318;SDS011;46163;52.306;5.634;2023-09-08T06:50:40;5.28;;;3.97;;
60318;SDS011;46163;52.306;5.634;2023-09-08T06:53:05;4.38;;;3.97;;
60318;SDS011;46163;52.306;5.634;2023-09-08T06:55:30;6.43;;;4.07;;
60318;SDS011;46163;52.306;5.634;2023-09-08T06:57:56;4.25;;;3.60;;
60318;SDS011;46163;52.306;5.634;2023-09-08T07:00:24;4.15;;;3.75;;
60318;SDS011;46163;52.306;5.634;2023-09-08T07:02:50;4.65;;;4.00;;
60318;SDS011;46163;52.306;5.634;2023-09-08T07:05:15;4.90;;;3.92;;
60318;SDS011;46163;52.306;5.634;2023-09-08T07:07:41;4.80;;;3.80;;
60318;SDS011;46163;52.306;5.634;2023-09-08T07:10:07;4.28;;;3.70;;
60318;SDS011;46163;52.306;5.634;2023-09-08T07:12:33;7.82;;;4.10;;
60318;SDS011;46163;52.306;5.634;2023-09-08T07:14:59;3.65;;;3.35;;
60318;SDS011;46163;52.306;5.634;2023-09-08T07:17:25;5.28;;;3.75;;
60318;SDS011;46163;52.306;5.634;2023-09-08T07:19:51;3.58;;;3.28;;
60318;SDS011;46163;52.306;5.634;2023-09-08T07:22:16;3.70;;;3.20;;
60318;SDS011;46163;52.306;5.634;2023-09-08T07:24:42;4.15;;;3.10;;
60318;SDS011;46163;52.306;5.634;2023-09-08T07:29:38;3.25;;;2.80;;
60318;SDS011;46163;52.306;5.634;2023-09-08T07:32:04;6.97;;;3.10;;
60318;SDS011;46163;52.306;5.634;2023-09-08T07:34:30;2.95;;;2.65;;
60318;SDS011;46163;52.306;5.634;2023-09-08T07:36:55;3.35;;;2.70;;
60318;SDS011;46163;52.306;5.634;2023-09-08T07:39:21;5.75;;;3.22;;
60318;SDS011;46163;52.306;5.634;2023-09-08T07:41:46;4.15;;;2.90;;
60318;SDS011;46163;52.306;5.634;2023-09-08T07:44:12;5.95;;;3.00;;
60318;SDS011;46163;52.306;5.634;2023-09-08T07:46:38;7.63;;;3.25;;
60318;SDS011;46163;52.306;5.634;2023-09-08T07:49:03;3.97;;;2.63;;
60318;SDS011;46163;52.306;5.634;2023-09-08T07:51:29;2.80;;;2.40;;
60318;SDS011;46163;52.306;5.634;2023-09-08T07:53:54;3.13;;;2.60;;
60318;SDS011;46163;52.306;5.634;2023-09-08T07:56:21;3.72;;;2.60;;
60318;SDS011;46163;52.306;5.634;2023-09-08T07:58:46;2.58;;;2.38;;
60318;SDS011;46163;52.306;5.634;2023-09-08T08:01:12;3.00;;;2.60;;
60318;SDS011;46163;52.306;5.634;2023-09-08T08:03:39;2.70;;;2.40;;
60318;SDS011;46163;52.306;5.634;2023-09-08T08:06:05;3.45;;;2.63;;
60318;SDS011;46163;52.306;5.634;2023-09-08T08:08:31;5.40;;;2.70;;
60318;SDS011;46163;52.306;5.634;2023-09-08T08:10:57;3.38;;;2.58;;
60318;SDS011;46163;52.306;5.634;2023-09-08T08:13:22;4.93;;;2.47;;
60318;SDS011;46163;52.306;5.634;2023-09-08T08:15:48;7.63;;;2.70;;
60318;SDS011;46163;52.306;5.634;2023-09-08T08:18:17;3.13;;;2.40;;
60318;SDS011;46163;52.306;5.634;2023-09-08T08:20:42;3.80;;;2.10;;
60318;SDS011;46163;52.306;5.634;2023-09-08T08:23:08;4.80;;;2.47;;
60318;SDS011;46163;52.306;5.634;2023-09-08T08:25:33;2.60;;;2.30;;
60318;SDS011;46163;52.306;5.634;2023-09-08T08:27:59;2.23;;;2.00;;
60318;SDS011;46163;52.306;5.634;2023-09-08T08:32:51;4.10;;;2.53;;
60318;SDS011;46163;52.306;5.634;2023-09-08T08:35:18;2.10;;;2.00;;
60318;SDS011;46163;52.306;5.634;2023-09-08T08:37:44;4.13;;;2.50;;
60318;SDS011;46163;52.306;5.634;2023-09-08T08:40:10;5.37;;;2.20;;
60318;SDS011;46163;52.306;5.634;2023-09-08T08:42:37;7.85;;;2.40;;
60318;SDS011;46163;52.306;5.634;2023-09-08T08:45:03;4.15;;;2.40;;
60318;SDS011;46163;52.306;5.634;2023-09-08T08:47:29;4.68;;;2.30;;
60318;SDS011;46163;52.306;5.634;2023-09-08T08:49:55;3.55;;;2.58;;
60318;SDS011;46163;52.306;5.634;2023-09-08T08:52:23;2.78;;;2.22;;
60318;SDS011;46163;52.306;5.634;2023-09-08T08:54:50;4.22;;;2.38;;
60318;SDS011;46163;52.306;5.634;2023-09-08T08:57:18;3.53;;;2.05;;
60318;SDS011;46163;52.306;5.634;2023-09-08T08:59:45;3.72;;;2.17;;
60318;SDS011;46163;52.306;5.634;2023-09-08T09:02:11;3.45;;;2.05;;
60318;SDS011;46163;52.306;5.634;2023-09-08T09:04:39;3.40;;;2.10;;
60318;SDS011;46163;52.306;5.634;2023-09-08T09:07:06;2.30;;;2.10;;
60318;SDS011;46163;52.306;5.634;2023-09-08T09:09:34;2.30;;;2.10;;
60318;SDS011;46163;52.306;5.634;2023-09-08T09:12:04;2.90;;;2.10;;
60318;SDS011;46163;52.306;5.634;2023-09-08T09:14:33;3.22;;;2.25;;
60318;SDS011;46163;52.306;5.634;2023-09-08T09:17:00;5.97;;;2.17;;
60318;SDS011;46163;52.306;5.634;2023-09-08T09:19:30;3.33;;;2.15;;
60318;SDS011;46163;52.306;5.634;2023-09-08T09:21:57;3.78;;;2.45;;
60318;SDS011;46163;52.306;5.634;2023-09-08T09:26:59;2.88;;;2.30;;
60318;SDS011;46163;52.306;5.634;2023-09-08T09:29:26;3.30;;;2.20;;
60318;SDS011;46163;52.306;5.634;2023-09-08T09:31:54;3.15;;;2.20;;
60318;SDS011;46163;52.306;5.634;2023-09-08T09:34:20;3.03;;;2.10;;
60318;SDS011;46163;52.306;5.634;2023-09-08T09:39:18;3.30;;;2.10;;
60318;SDS011;46163;52.306;5.634;2023-09-08T09:41:48;4.85;;;2.28;;
60318;SDS011;46163;52.306;5.634;2023-09-08T09:44:18;2.40;;;2.20;;
60318;SDS011;46163;52.306;5.634;2023-09-08T09:46:46;3.30;;;2.15;;
60318;SDS011;46163;52.306;5.634;2023-09-08T09:49:13;4.05;;;2.25;;
60318;SDS011;46163;52.306;5.634;2023-09-08T09:51:45;4.60;;;2.30;;
60318;SDS011;46163;52.306;5.634;2023-09-08T09:54:18;3.83;;;2.40;;
60318;SDS011;46163;52.306;5.634;2023-09-08T09:56:44;4.80;;;1.90;;
60318;SDS011;46163;52.306;5.634;2023-09-08T09:59:11;2.63;;;2.10;;
60318;SDS011;46163;52.306;5.634;2023-09-08T10:01:38;2.22;;;2.03;;
60318;SDS011;46163;52.306;5.634;2023-09-08T10:04:05;4.28;;;2.30;;
60318;SDS011;46163;52.306;5.634;2023-09-08T10:06:31;3.83;;;2.40;;
60318;SDS011;46163;52.306;5.634;2023-09-08T10:09:02;5.22;;;2.20;;
60318;SDS011;46163;52.306;5.634;2023-09-08T10:11:34;3.83;;;2.30;;
60318;SDS011;46163;52.306;5.634;2023-09-08T10:14:03;3.17;;;2.20;;
60318;SDS011;46163;52.306;5.634;2023-09-08T10:16:31;2.47;;;2.28;;
60318;SDS011;46163;52.306;5.634;2023-09-08T10:18:59;3.08;;;2.20;;
60318;SDS011;46163;52.306;5.634;2023-09-08T10:21:29;2.55;;;2.20;;
60318;SDS011;46163;52.306;5.634;2023-09-08T10:24:02;3.58;;;2.25;;
60318;SDS011;46163;52.306;5.634;2023-09-08T10:26:37;5.00;;;2.40;;
60318;SDS011;46163;52.306;5.634;2023-09-08T10:29:07;3.45;;;2.60;;
60318;SDS011;46163;52.306;5.634;2023-09-08T10:31:37;4.55;;;2.60;;
60318;SDS011;46163;52.306;5.634;2023-09-08T10:34:03;3.17;;;2.67;;
60318;SDS011;46163;52.306;5.634;2023-09-08T10:36:29;6.95;;;2.63;;
60318;SDS011;46163;52.306;5.634;2023-09-08T10:38:58;3.85;;;2.92;;
60318;SDS011;46163;52.306;5.634;2023-09-08T10:42:24;5.55;;;2.83;;
60318;SDS011;46163;52.306;5.634;2023-09-08T10:44:56;5.38;;;2.50;;
60318;SDS011;46163;52.306;5.634;2023-09-08T10:47:26;3.35;;;2.90;;
60318;SDS011;46163;52.306;5.634;2023-09-08T10:50:04;3.55;;;2.83;;
60318;SDS011;46163;52.306;5.634;2023-09-08T10:52:35;5.60;;;2.65;;
60318;SDS011;46163;52.306;5.634;2023-09-08T10:55:01;4.90;;;2.80;;
60318;SDS011;46163;52.306;5.634;2023-09-08T10:57:26;4.07;;;2.80;;
60318;SDS011;46163;52.306;5.634;2023-09-08T10:59:57;3.33;;;2.70;;
60318;SDS011;46163;52.306;5.634;2023-09-08T11:05:06;3.97;;;2.83;;
60318;SDS011;46163;52.306;5.634;2023-09-08T11:07:38;2.88;;;2.60;;
60318;SDS011;46163;52.306;5.634;2023-09-08T11:10:05;3.55;;;2.75;;
60318;SDS011;46163;52.306;5.634;2023-09-08T11:12:32;4.03;;;2.70;;
60318;SDS011;46163;52.306;5.634;2023-09-08T11:14:58;5.22;;;3.10;;
60318;SDS011;46163;52.306;5.634;2023-09-08T11:17:30;2.90;;;2.50;;
60318;SDS011;46163;52.306;5.634;2023-09-08T11:19:56;3.33;;;2.63;;
60318;SDS011;46163;52.306;5.634;2023-09-08T11:22:22;4.65;;;2.60;;
60318;SDS011;46163;52.306;5.634;2023-09-08T11:24:52;4.15;;;2.80;;
60318;SDS011;46163;52.306;5.634;2023-09-08T11:27:19;4.00;;;2.90;;
60318;SDS011;46163;52.306;5.634;2023-09-08T11:29:46;6.60;;;2.83;;
60318;SDS011;46163;52.306;5.634;2023-09-08T11:32:12;3.35;;;2.72;;
60318;SDS011;46163;52.306;5.634;2023-09-08T11:34:38;4.15;;;2.60;;
60318;SDS011;46163;52.306;5.634;2023-09-08T11:37:13;5.03;;;2.75;;
60318;SDS011;46163;52.306;5.634;2023-09-08T11:39:41;4.43;;;2.97;;
60318;SDS011;46163;52.306;5.634;2023-09-08T11:42:08;3.83;;;2.78;;
60318;SDS011;46163;52.306;5.634;2023-09-08T11:44:35;3.33;;;2.90;;
60318;SDS011;46163;52.306;5.634;2023-09-08T11:47:02;3.80;;;2.80;;
60318;SDS011;46163;52.306;5.634;2023-09-08T11:49:34;3.90;;;2.60;;
60318;SDS011;46163;52.306;5.634;2023-09-08T11:52:04;2.88;;;2.63;;
60318;SDS011;46163;52.306;5.634;2023-09-08T11:54:31;3.83;;;2.90;;
60318;SDS011;46163;52.306;5.634;2023-09-08T11:57:03;4.70;;;2.87;;
60318;SDS011;46163;52.306;5.634;2023-09-08T11:59:34;3.20;;;2.78;;
60318;SDS011;46163;52.306;5.634;2023-09-08T12:02:00;3.05;;;2.47;;
60318;SDS011;46163;52.306;5.634;2023-09-08T12:04:28;2.80;;;2.60;;
60318;SDS011;46163;52.306;5.634;2023-09-08T12:06:54;5.30;;;2.60;;
60318;SDS011;46163;52.306;5.634;2023-09-08T12:09:25;3.63;;;2.58;;
60318;SDS011;46163;52.306;5.634;2023-09-08T12:11:53;3.28;;;2.60;;
60318;SDS011;46163;52.306;5.634;2023-09-08T12:14:18;3.38;;;2.60;;
60318;SDS011;46163;52.306;5.634;2023-09-08T12:16:44;3.20;;;2.90;;
60318;SDS011;46163;52.306;5.634;2023-09-08T12:19:27;3.30;;;3.00;;
60318;SDS011;46163;52.306;5.634;2023-09-08T12:21:59;3.45;;;3.08;;
60318;SDS011;46163;52.306;5.634;2023-09-08T12:27:35;11.40;;;3.33;;
60318;SDS011;46163;52.306;5.634;2023-09-08T12:30:02;4.20;;;3.33;;
60318;SDS011;46163;52.306;5.634;2023-09-08T12:32:30;7.53;;;2.95;;
60318;SDS011;46163;52.306;5.634;2023-09-08T12:34:57;4.40;;;3.20;;
60318;SDS011;46163;52.306;5.634;2023-09-08T12:37:24;3.80;;;2.92;;
60318;SDS011;46163;52.306;5.634;2023-09-08T12:39:54;6.75;;;3.17;;
60318;SDS011;46163;52.306;5.634;2023-09-08T12:42:20;3.60;;;3.30;;
60318;SDS011;46163;52.306;5.634;2023-09-08T12:44:46;8.45;;;2.88;;
60318;SDS011;46163;52.306;5.634;2023-09-08T12:47:12;4.63;;;3.00;;
60318;SDS011;46163;52.306;5.634;2023-09-08T12:49:38;5.25;;;3.00;;
60318;SDS011;46163;52.306;5.634;2023-09-08T12:52:06;5.88;;;3.08;;
60318;SDS011;46163;52.306;5.634;2023-09-08T12:54:32;4.18;;;2.85;;
60318;SDS011;46163;52.306;5.634;2023-09-08T12:56:57;3.85;;;2.97;;
60318;SDS011;46163;52.306;5.634;2023-09-08T12:59:23;4.38;;;2.90;;
60318;SDS011;46163;52.306;5.634;2023-09-08T13:01:48;5.03;;;3.08;;
60318;SDS011;46163;52.306;5.634;2023-09-08T13:04:16;4.32;;;2.75;;
60318;SDS011;46163;52.306;5.634;2023-09-08T13:06:41;4.57;;;3.00;;
60318;SDS011;46163;52.306;5.634;2023-09-08T13:09:08;7.57;;;3.08;;
60318;SDS011;46163;52.306;5.634;2023-09-08T13:11:33;7.45;;;3.33;;
60318;SDS011;46163;52.306;5.634;2023-09-08T13:13:59;5.15;;;2.80;;
60318;SDS011;46163;52.306;5.634;2023-09-08T13:16:24;5.22;;;2.50;;
60318;SDS011;46163;52.306;5.634;2023-09-08T13:18:50;6.75;;;2.70;;
60318;SDS011;46163;52.306;5.634;2023-09-08T13:21:16;3.70;;;2.67;;
60318;SDS011;46163;52.306;5.634;2023-09-08T13:23:42;3.00;;;2.60;;
60318;SDS011;46163;52.306;5.634;2023-09-08T13:26:07;6.82;;;2.90;;
60318;SDS011;46163;52.306;5.634;2023-09-08T13:28:32;3.85;;;2.50;;
60318;SDS011;46163;52.306;5.634;2023-09-08T13:31:00;4.57;;;2.70;;
60318;SDS011;46163;52.306;5.634;2023-09-08T13:33:25;5.03;;;2.80;;
60318;SDS011;46163;52.306;5.634;2023-09-08T13:35:51;3.70;;;2.80;;
60318;SDS011;46163;52.306;5.634;2023-09-08T13:38:17;4.57;;;2.65;;
60318;SDS011;46163;52.306;5.634;2023-09-08T13:40:43;4.88;;;2.83;;
60318;SDS011;46163;52.306;5.634;2023-09-08T13:43:08;4.00;;;2.60;;
60318;SDS011;46163;52.306;5.634;2023-09-08T13:45:36;3.35;;;2.50;;
60318;SDS011;46163;52.306;5.634;2023-09-08T13:48:01;3.88;;;2.88;;
60318;SDS011;46163;52.306;5.634;2023-09-08T13:52:54;4.10;;;2.80;;
60318;SDS011;46163;52.306;5.634;2023-09-08T13:55:22;6.65;;;2.95;;
60318;SDS011;46163;52.306;5.634;2023-09-08T13:57:49;3.17;;;2.58;;
60318;SDS011;46163;52.306;5.634;2023-09-08T14:00:15;5.30;;;2.42;;
60318;SDS011;46163;52.306;5.634;2023-09-08T14:02:42;3.88;;;2.72;;
60318;SDS011;46163;52.306;5.634;2023-09-08T14:05:07;5.30;;;2.67;;
60318;SDS011;46163;52.306;5.634;2023-09-08T14:07:33;3.38;;;2.67;;
60318;SDS011;46163;52.306;5.634;2023-09-08T14:09:58;3.72;;;2.83;;
60318;SDS011;46163;52.306;5.634;2023-09-08T14:12:24;6.75;;;3.17;;
60318;SDS011;46163;52.306;5.634;2023-09-08T14:14:49;3.25;;;2.70;;
60318;SDS011;46163;52.306;5.634;2023-09-08T14:17:18;4.38;;;3.00;;
60318;SDS011;46163;52.306;5.634;2023-09-08T14:19:45;9.32;;;3.38;;
60318;SDS011;46163;52.306;5.634;2023-09-08T14:22:11;3.55;;;3.08;;
60318;SDS011;46163;52.306;5.634;2023-09-08T14:24:36;6.10;;;3.25;;
60318;SDS011;46163;52.306;5.634;2023-09-08T14:27:02;3.35;;;3.05;;
60318;SDS011;46163;52.306;5.634;2023-09-08T14:29:28;6.22;;;2.88;;
60318;SDS011;46163;52.306;5.634;2023-09-08T14:31:54;3.67;;;3.05;;
60318;SDS011;46163;52.306;5.634;2023-09-08T14:34:19;8.73;;;2.90;;
60318;SDS011;46163;52.306;5.634;2023-09-08T14:36:47;4.85;;;3.20;;
60318;SDS011;46163;52.306;5.634;2023-09-08T14:39:15;6.22;;;3.17;;
60318;SDS011;46163;52.306;5.634;2023-09-08T14:41:42;4.65;;;3.40;;
60318;SDS011;46163;52.306;5.634;2023-09-08T14:44:09;5.18;;;3.15;;
60318;SDS011;46163;52.306;5.634;2023-09-08T14:46:35;3.83;;;3.42;;
60318;SDS011;46163;52.306;5.634;2023-09-08T14:49:00;5.10;;;3.00;;
60318;SDS011;46163;52.306;5.634;2023-09-08T14:53:53;5.15;;;2.90;;
60318;SDS011;46163;52.306;5.634;2023-09-08T14:56:19;3.65;;;3.00;;
60318;SDS011;46163;52.306;5.634;2023-09-08T14:58:44;5.25;;;3.03;;
60318;SDS011;46163;52.306;5.634;2023-09-08T15:01:10;5.95;;;3.10;;
60318;SDS011;46163;52.306;5.634;2023-09-08T15:03:37;4.88;;;3.40;;
60318;SDS011;46163;52.306;5.634;2023-09-08T15:06:03;3.50;;;3.20;;
60318;SDS011;46163;52.306;5.634;2023-09-08T15:08:28;4.28;;;3.17;;
60318;SDS011;46163;52.306;5.634;2023-09-08T15:10:54;4.60;;;2.80;;
60318;SDS011;46163;52.306;5.634;2023-09-08T15:13:20;3.67;;;2.90;;
60318;SDS011;46163;52.306;5.634;2023-09-08T15:15:45;3.60;;;3.00;;